Mendon, Massachusetts
Current Conditions -  °F | °C
As of 4:35 PM on Thursday 18 Dec 2014 (Local Time) from KSFZ Reporting Station
Overcast Overcast  
Wind Chill: 31°   Ceiling: 3300
Heat Index: 37°   Visibility: 10mi
Dew Point: 23°   Wind: 9mph
Humidity: 56%   Direction: 280°W
Pressure: 29.83"   Gusts: 18mph
Location:  42.11°N, 71.55°W
Report Text: KSFZ 182135Z 28008G16KT 10SM OVC033 03/M05 A2983 RMK AO1
Loading
Personal Weather Stations






























Interactive Weather Map New forecast layout! Learn more

10-Day Weather Forecast

Advertisements
Track Severe Weather on mobile